Warren, Manitoba

5:10 PM CDT on August 29, 2015 (GMT -0500)
Woodlands Municipality | | Change Station
CLOSE
Current Station
Personal Weather Station
Location: Town of Woodlands, Manitoba
Elevation: 820 ft
Nearby Weather Stations

Elev 820 ft 50.21 °N, 97.66 °W | Updated 13 seconds ago

Overcast
Overcast
72.6 °F
Feels Like 70 °F
N
8.7
Wind Variable Wind from South
Gusts 16.1 mph

Today
High -- | Low -- °F
--% Chance of Precip.
Yesterday
High -- | Low -- °F
Precip. -- in
6:40 AM 8:20 PM
Full, 100% visible
Pressure 29.81 in
Visibility 8.0 miles
Clouds Few 4000 ft
Mostly Cloudy 17000 ft
Overcast 20000 ft
Heat Index 70 °F
Dew Point 69 °F
Humidity 89%
Rainfall 0.00 in
Snow Depth Not available.
UV 1 out of 12
Pollen Not available.
Air Quality Not available.
Flu Activity Not available.
METAR CYWG 292200Z 17017KT 8SM FEW040 BKN170 OVC200 23/20 A2980 RMK SC1AC6CI2 SC TR SLP092 DENSITY ALT 2000FT
Pressure 29.81 in
Visibility 8.0 miles
Clouds Few 4000 ft
Mostly Cloudy 17000 ft
Overcast 20000 ft
Heat Index 70 °F
Dew Point 69 °F
Humidity 89%
Rainfall 0.00 in
Snow Depth Not available.
UV 1 out of 12
Pollen Not available.
Air Quality Not available.
Flu Activity Not available.
METAR CYWG 292200Z 17017KT 8SM FEW040 BKN170 OVC200 23/20 A2980 RMK SC1AC6CI2 SC TR SLP092 DENSITY ALT 2000FT

10-Day Weather Forecast

×

Almanac

Astronomy

Aug. 29, 2015 Rise Set
Actual Time
Civil Twilight
Nautical Twilight
Astronomical Twilight
Moon
Length of Visible Light
Length of Day
Tomorrow will be .
, % of the Moon is Illuminated

Today's Extremes

Country Highs Country Lows

Community

WunderPhotos

Upload Photos

1,850,786 photos uploaded!

WunderBlogs® & News

Nearby

Air Quality

  Air Quality AQ Index Pollutant
Not available.

Snow Depth

Station Depth Elevation

Earthquake Activity

City Distance Mag. Time & Date
Minimum magnitude displayed is 2.5.

Coastal Water Temperatures

Place Temperature

Stations

Nearby Weather Stations

Station Location Temp. Windchill Dew Point Humidity Wind Precip. Elev Updated Type